Aviation Digital Data Service (ADDS)

Output produced by METARs form (0224 UTC 24 September 2014)
found at http://aviationweather.gov/adds/metars/
 
KAVL 232329Z 2400/2424 19003KT P6SM SCT025 SCT150 
     FM240700 00000KT P6SM SCT035 
     TEMPO 2409/2413 2SM BR SCT005 
     FM241400 34010KT P6SM SCT150